createdAt,value
2024-03-16T00:00:10.743Z,53.49
2024-03-16T00:02:39.280Z,53.56
2024-03-16T00:05:07.449Z,53.35
2024-03-16T00:07:35.282Z,53.48
2024-03-16T00:10:03.157Z,53.56
2024-03-16T00:12:32.100Z,53.53
2024-03-16T00:14:59.719Z,53.43
2024-03-16T00:17:27.332Z,53.37
2024-03-16T00:19:54.677Z,53.30
2024-03-16T00:22:22.562Z,53.29
2024-03-16T00:24:50.779Z,53.38
2024-03-16T00:27:19.244Z,53.29
2024-03-16T00:29:46.801Z,53.27
2024-03-16T00:32:14.541Z,53.27
2024-03-16T00:34:42.277Z,53.42
2024-03-16T00:37:10.027Z,53.34
2024-03-16T00:39:37.666Z,53.27
2024-03-16T00:42:05.630Z,53.37
2024-03-16T00:44:33.081Z,53.26
2024-03-16T00:47:00.724Z,53.25
2024-03-16T00:49:28.011Z,53.40
2024-03-16T00:51:55.581Z,53.39
2024-03-16T00:54:22.928Z,53.39
2024-03-16T00:56:52.876Z,53.29
2024-03-16T00:59:20.266Z,53.32
2024-03-16T01:01:48.771Z,53.30
2024-03-16T01:04:16.134Z,53.39
2024-03-16T01:06:45.075Z,53.29
2024-03-16T01:09:17.174Z,53.14
2024-03-16T01:11:45.216Z,53.27
2024-03-16T01:14:12.757Z,53.29
2024-03-16T01:16:40.303Z,53.33
2024-03-16T01:19:07.848Z,53.29
2024-03-16T01:21:35.502Z,53.29
2024-03-16T01:24:03.951Z,53.18
2024-03-16T01:26:31.505Z,53.21
2024-03-16T01:29:00.658Z,53.09
2024-03-16T01:31:28.298Z,53.16
2024-03-16T01:33:55.625Z,53.27
2024-03-16T01:36:23.291Z,53.18
2024-03-16T01:38:50.587Z,53.13
2024-03-16T01:41:18.160Z,53.11
2024-03-16T01:43:49.545Z,53.19
2024-03-16T01:46:18.325Z,53.07
2024-03-16T01:48:46.901Z,53.15
2024-03-16T01:51:14.561Z,53.24
2024-03-16T01:53:41.942Z,53.20
2024-03-16T01:56:10.147Z,53.02
2024-03-16T01:58:44.319Z,53.07
2024-03-16T02:01:12.593Z,52.89
2024-03-16T02:03:40.975Z,52.97
2024-03-16T02:06:08.887Z,53.12
2024-03-16T02:08:38.933Z,53.12
2024-03-16T02:11:06.609Z,53.09
2024-03-16T02:13:33.947Z,53.10
2024-03-16T02:16:03.137Z,53.10
2024-03-16T02:18:30.929Z,53.07
2024-03-16T02:20:58.556Z,53.09
2024-03-16T02:23:26.879Z,53.18
2024-03-16T02:25:54.702Z,53.01
2024-03-16T02:28:22.059Z,53.07
2024-03-16T02:30:49.706Z,52.96
2024-03-16T02:33:17.256Z,53.00
2024-03-16T02:35:44.863Z,52.94
2024-03-16T02:38:12.217Z,53.00
2024-03-16T02:40:39.852Z,53.11
2024-03-16T02:43:08.841Z,53.15
2024-03-16T02:45:36.519Z,53.05
2024-03-16T02:48:06.235Z,53.05
2024-03-16T02:50:33.898Z,53.12
2024-03-16T02:53:01.518Z,53.06
2024-03-16T02:55:29.555Z,52.94
2024-03-16T02:57:57.039Z,53.11
2024-03-16T03:00:24.682Z,53.05
2024-03-16T03:02:52.845Z,52.82
2024-03-16T03:05:22.320Z,52.95
2024-03-16T03:07:49.769Z,52.99
2024-03-16T03:10:18.115Z,52.96
2024-03-16T03:12:46.201Z,52.91
2024-03-16T03:15:14.540Z,52.89
2024-03-16T03:17:41.945Z,52.94
2024-03-16T03:20:10.785Z,52.98
2024-03-16T03:22:38.070Z,52.92
2024-03-16T03:25:06.601Z,52.93
2024-03-16T03:27:35.001Z,52.89
2024-03-16T03:30:02.782Z,52.97
2024-03-16T03:32:30.540Z,52.90
2024-03-16T03:34:58.237Z,53.02
2024-03-16T03:37:25.683Z,53.02
2024-03-16T03:39:54.041Z,52.82
2024-03-16T03:42:30.479Z,52.87
2024-03-16T03:45:17.015Z,52.96
2024-03-16T03:48:04.604Z,52.83
2024-03-16T03:50:34.654Z,52.89
2024-03-16T03:53:06.592Z,52.92
2024-03-16T03:55:34.213Z,52.88
2024-03-16T03:58:03.477Z,52.84
2024-03-16T04:00:31.230Z,52.75
2024-03-16T04:02:58.553Z,52.88
2024-03-16T04:05:27.358Z,52.95
2024-03-16T04:07:55.145Z,52.92
2024-03-16T04:10:25.757Z,52.86
2024-03-16T04:12:55.262Z,52.86
2024-03-16T04:15:22.945Z,52.79
2024-03-16T04:17:51.573Z,52.85
2024-03-16T04:20:19.856Z,52.82
2024-03-16T04:22:47.977Z,52.83
2024-03-16T04:25:16.662Z,52.79
2024-03-16T04:27:45.154Z,52.80
2024-03-16T04:30:14.485Z,52.88
2024-03-16T04:32:42.131Z,52.76
2024-03-16T04:35:10.900Z,52.80
2024-03-16T04:37:39.386Z,52.77
2024-03-16T04:40:07.573Z,52.76
2024-03-16T04:42:34.959Z,52.86
2024-03-16T04:45:02.526Z,52.74
2024-03-16T04:47:29.895Z,52.79
2024-03-16T04:49:57.537Z,52.71
2024-03-16T04:52:25.510Z,52.74
2024-03-16T04:54:53.203Z,52.82
2024-03-16T04:57:20.704Z,52.66
2024-03-16T04:59:48.322Z,52.62
2024-03-16T05:02:15.754Z,52.66
2024-03-16T05:04:43.331Z,52.77
2024-03-16T05:07:10.893Z,52.69
2024-03-16T05:09:38.557Z,52.71
2024-03-16T05:12:06.041Z,52.71
2024-03-16T05:14:33.640Z,52.66
2024-03-16T05:17:01.006Z,52.64
2024-03-16T05:19:28.617Z,52.72
2024-03-16T05:21:56.211Z,52.79
2024-03-16T05:24:24.066Z,52.72
2024-03-16T05:26:51.393Z,52.69
2024-03-16T05:29:19.137Z,52.65
2024-03-16T05:31:59.847Z,52.74
2024-03-16T05:34:27.586Z,52.67
2024-03-16T05:36:55.133Z,52.67
2024-03-16T05:39:23.309Z,52.70
2024-03-16T05:41:50.670Z,52.68
2024-03-16T05:44:18.298Z,52.78
2024-03-16T05:46:45.586Z,52.71
2024-03-16T05:49:13.338Z,52.72
2024-03-16T05:51:41.352Z,52.68
2024-03-16T05:54:10.213Z,52.60
2024-03-16T05:56:38.495Z,52.64
2024-03-16T05:59:09.975Z,52.59
2024-03-16T06:01:38.106Z,52.69
2024-03-16T06:04:05.922Z,52.66
2024-03-16T06:06:33.514Z,52.71
2024-03-16T06:09:01.124Z,52.79
2024-03-16T06:11:28.621Z,52.74
2024-03-16T06:13:56.321Z,52.56
2024-03-16T06:16:23.646Z,52.71
2024-03-16T06:18:51.551Z,52.79
2024-03-16T06:21:18.890Z,52.83
2024-03-16T06:23:47.571Z,52.76
2024-03-16T06:26:23.782Z,52.66
2024-03-16T06:28:57.342Z,52.73
2024-03-16T06:31:32.613Z,52.75
2024-03-16T06:34:01.006Z,52.73
2024-03-16T06:36:29.166Z,52.59
2024-03-16T06:38:57.233Z,52.68
2024-03-16T06:41:24.615Z,52.64
2024-03-16T06:43:52.184Z,52.77
2024-03-16T06:46:19.664Z,52.71
2024-03-16T06:48:47.647Z,52.73
2024-03-16T06:51:15.225Z,52.41
2024-03-16T06:53:42.831Z,52.40
2024-03-16T06:56:10.740Z,52.43
2024-03-16T06:58:38.316Z,52.48
2024-03-16T07:01:06.125Z,52.27
2024-03-16T07:03:33.990Z,52.20
2024-03-16T07:06:01.749Z,52.05
2024-03-16T07:08:29.759Z,52.13
2024-03-16T07:10:58.131Z,51.78
2024-03-16T07:13:26.155Z,51.89
2024-03-16T07:15:53.393Z,51.87
2024-03-16T07:18:21.026Z,51.67
2024-03-16T07:20:48.288Z,51.54
2024-03-16T07:23:15.839Z,51.60
2024-03-16T07:25:43.099Z,51.41
2024-03-16T07:28:11.033Z,51.27
2024-03-16T07:30:38.590Z,51.24
2024-03-16T07:33:06.281Z,51.22
2024-03-16T07:35:33.829Z,51.16
2024-03-16T07:38:01.400Z,50.85
2024-03-16T07:40:28.924Z,50.82
2024-03-16T07:42:56.956Z,51.00
2024-03-16T07:45:24.318Z,51.03
2024-03-16T07:47:51.920Z,51.59
2024-03-16T07:50:19.433Z,49.45
2024-03-16T07:52:46.975Z,49.65
2024-03-16T07:55:14.303Z,49.98
2024-03-16T07:57:41.985Z,49.52
2024-03-16T08:00:12.185Z,49.85
2024-03-16T08:02:40.146Z,50.08
2024-03-16T08:05:12.344Z,50.75
2024-03-16T08:07:43.039Z,50.30
2024-03-16T08:10:11.203Z,50.09
2024-03-16T08:12:39.017Z,50.03
2024-03-16T08:15:07.618Z,50.48
2024-03-16T08:17:35.435Z,49.97
2024-03-16T08:20:04.049Z,50.05
2024-03-16T08:22:31.673Z,50.68
2024-03-16T08:24:59.038Z,49.98
2024-03-16T08:27:32.112Z,50.48
2024-03-16T08:30:01.486Z,50.18
2024-03-16T08:32:30.636Z,50.36
2024-03-16T08:34:58.115Z,50.56
2024-03-16T08:37:25.889Z,50.44
2024-03-16T08:39:53.367Z,50.90
2024-03-16T08:42:20.983Z,50.73
2024-03-16T08:44:48.402Z,50.54
2024-03-16T08:47:16.207Z,50.50
2024-03-16T08:49:43.641Z,50.52
2024-03-16T08:52:11.353Z,50.58
2024-03-16T08:54:39.204Z,50.41
2024-03-16T08:57:07.810Z,50.49
2024-03-16T08:59:37.184Z,50.38
2024-03-16T09:02:05.047Z,50.47
2024-03-16T09:04:33.574Z,50.44
2024-03-16T09:07:01.157Z,50.50
2024-03-16T09:09:28.938Z,50.55
2024-03-16T09:11:56.490Z,50.46
2024-03-16T09:14:24.157Z,50.44
2024-03-16T09:16:51.913Z,50.50
2024-03-16T09:19:19.396Z,50.49
2024-03-16T09:21:47.535Z,50.26
2024-03-16T09:24:14.832Z,50.75
2024-03-16T09:26:42.533Z,50.94
2024-03-16T09:29:10.537Z,50.17
2024-03-16T09:31:38.446Z,50.00
2024-03-16T09:34:05.855Z,50.06
2024-03-16T09:36:33.885Z,50.01
2024-03-16T09:39:01.386Z,49.85
2024-03-16T09:41:30.328Z,49.68
